sensor_id;sensor_type;location;lat;lon;timestamp;temperature;humidity
44851;DHT22;30583;48.714;9.386;2022-11-24T00:01:59;8.20;81.10
44851;DHT22;30583;48.714;9.386;2022-11-24T00:04:25;8.20;81.10
44851;DHT22;30583;48.714;9.386;2022-11-24T00:06:50;8.20;80.70
44851;DHT22;30583;48.714;9.386;2022-11-24T00:09:18;8.20;80.90
44851;DHT22;30583;48.714;9.386;2022-11-24T00:11:44;8.00;81.50
44851;DHT22;30583;48.714;9.386;2022-11-24T00:14:10;8.00;81.30
44851;DHT22;30583;48.714;9.386;2022-11-24T00:16:36;7.90;81.70
44851;DHT22;30583;48.714;9.386;2022-11-24T00:19:04;7.60;82.30
44851;DHT22;30583;48.714;9.386;2022-11-24T00:21:31;7.80;82.10
44851;DHT22;30583;48.714;9.386;2022-11-24T00:23:57;7.90;81.70
44851;DHT22;30583;48.714;9.386;2022-11-24T00:26:25;7.90;81.40
44851;DHT22;30583;48.714;9.386;2022-11-24T00:28:52;8.00;81.40
44851;DHT22;30583;48.714;9.386;2022-11-24T00:33:50;8.00;81.50
44851;DHT22;30583;48.714;9.386;2022-11-24T00:36:20;8.00;81.60
44851;DHT22;30583;48.714;9.386;2022-11-24T00:38:46;8.00;81.50
44851;DHT22;30583;48.714;9.386;2022-11-24T00:41:12;8.10;81.50
44851;DHT22;30583;48.714;9.386;2022-11-24T00:43:38;8.10;81.30
44851;DHT22;30583;48.714;9.386;2022-11-24T00:46:04;8.00;81.70
44851;DHT22;30583;48.714;9.386;2022-11-24T00:48:30;8.00;81.60
44851;DHT22;30583;48.714;9.386;2022-11-24T00:51:06;7.90;82.00
44851;DHT22;30583;48.714;9.386;2022-11-24T00:53:32;7.80;82.50
44851;DHT22;30583;48.714;9.386;2022-11-24T00:55:58;7.90;82.10
44851;DHT22;30583;48.714;9.386;2022-11-24T00:58:24;7.90;82.40
44851;DHT22;30583;48.714;9.386;2022-11-24T01:00:50;8.00;82.20
44851;DHT22;30583;48.714;9.386;2022-11-24T01:03:17;8.00;82.30
44851;DHT22;30583;48.714;9.386;2022-11-24T01:05:43;8.10;82.00
44851;DHT22;30583;48.714;9.386;2022-11-24T01:08:09;8.20;81.90
44851;DHT22;30583;48.714;9.386;2022-11-24T01:10:35;8.00;82.30
44851;DHT22;30583;48.714;9.386;2022-11-24T01:13:00;7.90;83.00
44851;DHT22;30583;48.714;9.386;2022-11-24T01:15:26;8.00;82.90
44851;DHT22;30583;48.714;9.386;2022-11-24T01:17:54;8.00;82.60
44851;DHT22;30583;48.714;9.386;2022-11-24T01:20:20;7.90;83.00
44851;DHT22;30583;48.714;9.386;2022-11-24T01:22:47;8.00;82.80
44851;DHT22;30583;48.714;9.386;2022-11-24T01:25:13;7.80;83.00
44851;DHT22;30583;48.714;9.386;2022-11-24T01:27:38;7.90;83.00
44851;DHT22;30583;48.714;9.386;2022-11-24T01:30:05;7.80;83.00
44851;DHT22;30583;48.714;9.386;2022-11-24T01:32:31;7.80;82.70
44851;DHT22;30583;48.714;9.386;2022-11-24T01:35:04;7.80;82.90
44851;DHT22;30583;48.714;9.386;2022-11-24T01:37:30;8.00;81.80
44851;DHT22;30583;48.714;9.386;2022-11-24T01:39:56;8.10;81.60
44851;DHT22;30583;48.714;9.386;2022-11-24T01:42:22;8.10;81.70
44851;DHT22;30583;48.714;9.386;2022-11-24T01:45:24;7.90;82.10
44851;DHT22;30583;48.714;9.386;2022-11-24T01:47:38;7.70;82.30
44851;DHT22;30583;48.714;9.386;2022-11-24T01:50:12;7.80;82.60
44851;DHT22;30583;48.714;9.386;2022-11-24T01:52:45;7.90;81.90
44851;DHT22;30583;48.714;9.386;2022-11-24T01:55:23;8.00;81.20
44851;DHT22;30583;48.714;9.386;2022-11-24T01:57:55;7.90;81.30
44851;DHT22;30583;48.714;9.386;2022-11-24T02:00:22;7.80;80.70
44851;DHT22;30583;48.714;9.386;2022-11-24T02:02:48;7.90;80.50
44851;DHT22;30583;48.714;9.386;2022-11-24T02:05:35;7.90;80.40
44851;DHT22;30583;48.714;9.386;2022-11-24T02:08:03;8.10;80.20
44851;DHT22;30583;48.714;9.386;2022-11-24T02:10:30;7.70;80.30
44851;DHT22;30583;48.714;9.386;2022-11-24T02:12:58;7.70;81.00
44851;DHT22;30583;48.714;9.386;2022-11-24T02:15:24;7.60;81.00
44851;DHT22;30583;48.714;9.386;2022-11-24T02:17:50;7.70;80.90
44851;DHT22;30583;48.714;9.386;2022-11-24T02:20:16;7.90;80.60
44851;DHT22;30583;48.714;9.386;2022-11-24T02:26:01;7.90;80.60
44851;DHT22;30583;48.714;9.386;2022-11-24T02:28:30;7.90;80.30
44851;DHT22;30583;48.714;9.386;2022-11-24T02:30:57;7.90;80.30
44851;DHT22;30583;48.714;9.386;2022-11-24T02:33:24;7.80;80.70
44851;DHT22;30583;48.714;9.386;2022-11-24T02:35:50;7.90;80.50
44851;DHT22;30583;48.714;9.386;2022-11-24T02:38:16;8.00;80.00
44851;DHT22;30583;48.714;9.386;2022-11-24T02:40:45;8.00;79.90
44851;DHT22;30583;48.714;9.386;2022-11-24T02:43:15;8.00;79.70
44851;DHT22;30583;48.714;9.386;2022-11-24T02:45:43;7.90;79.90
44851;DHT22;30583;48.714;9.386;2022-11-24T02:48:09;7.90;80.20
44851;DHT22;30583;48.714;9.386;2022-11-24T02:50:34;7.90;80.30
44851;DHT22;30583;48.714;9.386;2022-11-24T02:53:00;8.00;80.20
44851;DHT22;30583;48.714;9.386;2022-11-24T02:55:26;7.90;80.10
44851;DHT22;30583;48.714;9.386;2022-11-24T02:57:51;7.90;80.00
44851;DHT22;30583;48.714;9.386;2022-11-24T03:00:17;7.90;79.80
44851;DHT22;30583;48.714;9.386;2022-11-24T03:02:43;8.10;79.50
44851;DHT22;30583;48.714;9.386;2022-11-24T03:05:09;8.00;79.60
44851;DHT22;30583;48.714;9.386;2022-11-24T03:07:36;7.80;80.20
44851;DHT22;30583;48.714;9.386;2022-11-24T03:10:03;7.80;80.30
44851;DHT22;30583;48.714;9.386;2022-11-24T03:12:28;7.80;80.30
44851;DHT22;30583;48.714;9.386;2022-11-24T03:14:54;7.70;80.30
44851;DHT22;30583;48.714;9.386;2022-11-24T03:17:20;7.60;80.60
44851;DHT22;30583;48.714;9.386;2022-11-24T03:19:45;7.60;81.10
44851;DHT22;30583;48.714;9.386;2022-11-24T03:22:12;7.50;81.00
44851;DHT22;30583;48.714;9.386;2022-11-24T03:24:38;7.50;81.10
44851;DHT22;30583;48.714;9.386;2022-11-24T03:27:03;7.50;80.90
44851;DHT22;30583;48.714;9.386;2022-11-24T03:29:29;7.30;80.90
44851;DHT22;30583;48.714;9.386;2022-11-24T03:31:54;7.10;81.60
44851;DHT22;30583;48.714;9.386;2022-11-24T03:34:20;7.20;81.40
44851;DHT22;30583;48.714;9.386;2022-11-24T03:36:46;7.10;81.10
44851;DHT22;30583;48.714;9.386;2022-11-24T03:39:11;7.20;81.30
44851;DHT22;30583;48.714;9.386;2022-11-24T03:41:37;7.10;81.30
44851;DHT22;30583;48.714;9.386;2022-11-24T03:44:03;7.10;80.90
44851;DHT22;30583;48.714;9.386;2022-11-24T03:46:28;6.90;81.00
44851;DHT22;30583;48.714;9.386;2022-11-24T03:48:54;7.00;80.60
44851;DHT22;30583;48.714;9.386;2022-11-24T03:51:19;7.00;80.70
44851;DHT22;30583;48.714;9.386;2022-11-24T03:53:45;6.90;81.00
44851;DHT22;30583;48.714;9.386;2022-11-24T03:56:10;6.80;81.20
44851;DHT22;30583;48.714;9.386;2022-11-24T03:58:36;7.00;80.50
44851;DHT22;30583;48.714;9.386;2022-11-24T04:01:02;7.10;80.00
44851;DHT22;30583;48.714;9.386;2022-11-24T04:03:28;6.90;80.60
44851;DHT22;30583;48.714;9.386;2022-11-24T04:05:53;7.00;80.70
44851;DHT22;30583;48.714;9.386;2022-11-24T04:08:19;7.00;80.60
44851;DHT22;30583;48.714;9.386;2022-11-24T04:10:51;7.20;80.10
44851;DHT22;30583;48.714;9.386;2022-11-24T04:13:19;7.20;79.90
44851;DHT22;30583;48.714;9.386;2022-11-24T04:15:45;7.10;80.20
44851;DHT22;30583;48.714;9.386;2022-11-24T04:18:11;7.10;79.90
44851;DHT22;30583;48.714;9.386;2022-11-24T04:20:38;7.20;80.00
44851;DHT22;30583;48.714;9.386;2022-11-24T04:23:04;7.00;80.50
44851;DHT22;30583;48.714;9.386;2022-11-24T04:25:30;6.80;80.80
44851;DHT22;30583;48.714;9.386;2022-11-24T04:27:56;6.90;81.10
44851;DHT22;30583;48.714;9.386;2022-11-24T04:30:23;6.80;81.70
44851;DHT22;30583;48.714;9.386;2022-11-24T04:32:49;6.80;81.90
44851;DHT22;30583;48.714;9.386;2022-11-24T04:35:15;6.80;81.80
44851;DHT22;30583;48.714;9.386;2022-11-24T04:37:40;6.90;81.40
44851;DHT22;30583;48.714;9.386;2022-11-24T04:40:08;6.90;81.60
44851;DHT22;30583;48.714;9.386;2022-11-24T04:42:34;6.80;81.80
44851;DHT22;30583;48.714;9.386;2022-11-24T04:45:00;6.90;81.70
44851;DHT22;30583;48.714;9.386;2022-11-24T04:47:26;6.80;81.80
44851;DHT22;30583;48.714;9.386;2022-11-24T04:49:52;6.90;81.60
44851;DHT22;30583;48.714;9.386;2022-11-24T04:52:20;6.80;81.50
44851;DHT22;30583;48.714;9.386;2022-11-24T04:54:46;6.80;81.90
44851;DHT22;30583;48.714;9.386;2022-11-24T04:57:21;6.90;81.40
44851;DHT22;30583;48.714;9.386;2022-11-24T04:59:48;7.10;81.10
44851;DHT22;30583;48.714;9.386;2022-11-24T05:02:14;7.20;80.90
44851;DHT22;30583;48.714;9.386;2022-11-24T05:04:40;7.00;81.50
44851;DHT22;30583;48.714;9.386;2022-11-24T05:07:05;7.00;81.80
44851;DHT22;30583;48.714;9.386;2022-11-24T05:09:32;7.00;81.70
44851;DHT22;30583;48.714;9.386;2022-11-24T05:11:57;7.00;81.50
44851;DHT22;30583;48.714;9.386;2022-11-24T05:14:23;7.00;81.30
44851;DHT22;30583;48.714;9.386;2022-11-24T05:16:48;6.80;82.10
44851;DHT22;30583;48.714;9.386;2022-11-24T05:19:14;6.70;82.50
44851;DHT22;30583;48.714;9.386;2022-11-24T05:21:40;6.60;82.90
44851;DHT22;30583;48.714;9.386;2022-11-24T05:24:05;6.70;82.50
44851;DHT22;30583;48.714;9.386;2022-11-24T05:26:31;6.50;83.10
44851;DHT22;30583;48.714;9.386;2022-11-24T05:28:57;6.60;82.70
44851;DHT22;30583;48.714;9.386;2022-11-24T05:31:22;6.70;82.40
44851;DHT22;30583;48.714;9.386;2022-11-24T05:33:48;6.80;82.10
44851;DHT22;30583;48.714;9.386;2022-11-24T05:36:13;6.80;81.60
44851;DHT22;30583;48.714;9.386;2022-11-24T05:38:58;6.80;81.50
44851;DHT22;30583;48.714;9.386;2022-11-24T05:41:23;6.70;82.00
44851;DHT22;30583;48.714;9.386;2022-11-24T05:43:49;6.60;82.10
44851;DHT22;30583;48.714;9.386;2022-11-24T05:46:15;6.70;81.90
44851;DHT22;30583;48.714;9.386;2022-11-24T05:48:40;6.60;81.70
44851;DHT22;30583;48.714;9.386;2022-11-24T05:51:06;6.60;82.00
44851;DHT22;30583;48.714;9.386;2022-11-24T05:53:31;6.50;82.10
44851;DHT22;30583;48.714;9.386;2022-11-24T05:55:57;6.40;82.50
44851;DHT22;30583;48.714;9.386;2022-11-24T05:58:22;6.40;82.50
44851;DHT22;30583;48.714;9.386;2022-11-24T06:00:48;6.60;81.70
44851;DHT22;30583;48.714;9.386;2022-11-24T06:03:13;6.60;81.70
44851;DHT22;30583;48.714;9.386;2022-11-24T06:05:39;6.50;81.70
44851;DHT22;30583;48.714;9.386;2022-11-24T06:08:05;6.50;81.60
44851;DHT22;30583;48.714;9.386;2022-11-24T06:10:30;6.40;81.60
44851;DHT22;30583;48.714;9.386;2022-11-24T06:12:56;6.30;82.20
44851;DHT22;30583;48.714;9.386;2022-11-24T06:15:22;6.90;83.30
44851;DHT22;30583;48.714;9.386;2022-11-24T06:17:54;6.50;82.80
44851;DHT22;30583;48.714;9.386;2022-11-24T06:20:21;6.50;83.70
44851;DHT22;30583;48.714;9.386;2022-11-24T06:22:47;6.30;82.30
44851;DHT22;30583;48.714;9.386;2022-11-24T06:25:13;6.10;82.80
44851;DHT22;30583;48.714;9.386;2022-11-24T06:27:38;6.30;82.40
44851;DHT22;30583;48.714;9.386;2022-11-24T06:30:05;6.50;81.70
44851;DHT22;30583;48.714;9.386;2022-11-24T06:32:30;6.40;81.70
44851;DHT22;30583;48.714;9.386;2022-11-24T06:34:56;6.70;81.20
44851;DHT22;30583;48.714;9.386;2022-11-24T06:37:22;6.90;82.80
44851;DHT22;30583;48.714;9.386;2022-11-24T06:39:47;7.30;81.20
44851;DHT22;30583;48.714;9.386;2022-11-24T06:42:13;7.40;80.10
44851;DHT22;30583;48.714;9.386;2022-11-24T06:44:45;7.40;80.10
44851;DHT22;30583;48.714;9.386;2022-11-24T06:47:13;7.50;79.60
44851;DHT22;30583;48.714;9.386;2022-11-24T06:49:39;7.40;79.00
44851;DHT22;30583;48.714;9.386;2022-11-24T06:52:05;7.00;79.60
44851;DHT22;30583;48.714;9.386;2022-11-24T06:54:30;7.30;80.10
44851;DHT22;30583;48.714;9.386;2022-11-24T06:56:57;7.30;79.40
44851;DHT22;30583;48.714;9.386;2022-11-24T06:59:23;7.50;79.30
44851;DHT22;30583;48.714;9.386;2022-11-24T07:01:49;7.60;79.00
44851;DHT22;30583;48.714;9.386;2022-11-24T07:04:15;7.40;79.20
44851;DHT22;30583;48.714;9.386;2022-11-24T07:06:41;7.10;80.50
44851;DHT22;30583;48.714;9.386;2022-11-24T07:09:11;7.40;80.10
44851;DHT22;30583;48.714;9.386;2022-11-24T07:11:38;7.70;79.30
44851;DHT22;30583;48.714;9.386;2022-11-24T07:14:04;7.90;78.50
44851;DHT22;30583;48.714;9.386;2022-11-24T07:16:30;7.70;78.70
44851;DHT22;30583;48.714;9.386;2022-11-24T07:18:56;7.40;79.50
44851;DHT22;30583;48.714;9.386;2022-11-24T07:21:23;7.60;79.30
44851;DHT22;30583;48.714;9.386;2022-11-24T07:23:50;7.70;79.20
44851;DHT22;30583;48.714;9.386;2022-11-24T07:26:16;7.80;79.40
44851;DHT22;30583;48.714;9.386;2022-11-24T07:28:42;7.50;80.00
44851;DHT22;30583;48.714;9.386;2022-11-24T07:31:10;7.50;80.00
44851;DHT22;30583;48.714;9.386;2022-11-24T07:33:36;7.40;80.80
44851;DHT22;30583;48.714;9.386;2022-11-24T07:36:03;7.30;81.30
44851;DHT22;30583;48.714;9.386;2022-11-24T07:38:30;7.40;81.70
44851;DHT22;30583;48.714;9.386;2022-11-24T07:41:04;7.20;82.10
44851;DHT22;30583;48.714;9.386;2022-11-24T07:43:30;7.30;82.30
44851;DHT22;30583;48.714;9.386;2022-11-24T07:45:56;7.30;82.40
44851;DHT22;30583;48.714;9.386;2022-11-24T07:48:22;7.40;82.30
44851;DHT22;30583;48.714;9.386;2022-11-24T07:50:48;7.50;82.30
44851;DHT22;30583;48.714;9.386;2022-11-24T07:53:13;7.50;82.60
44851;DHT22;30583;48.714;9.386;2022-11-24T07:55:39;7.40;83.30
44851;DHT22;30583;48.714;9.386;2022-11-24T07:58:05;7.20;84.20
44851;DHT22;30583;48.714;9.386;2022-11-24T08:00:30;7.20;84.50
44851;DHT22;30583;48.714;9.386;2022-11-24T08:02:56;7.20;84.60
44851;DHT22;30583;48.714;9.386;2022-11-24T08:05:21;7.00;85.50
44851;DHT22;30583;48.714;9.386;2022-11-24T08:07:47;6.90;86.00
44851;DHT22;30583;48.714;9.386;2022-11-24T08:10:13;7.20;85.40
44851;DHT22;30583;48.714;9.386;2022-11-24T08:12:38;7.50;84.50
44851;DHT22;30583;48.714;9.386;2022-11-24T08:15:04;7.50;84.50
44851;DHT22;30583;48.714;9.386;2022-11-24T08:17:31;7.60;84.20
44851;DHT22;30583;48.714;9.386;2022-11-24T08:19:57;7.70;84.10
44851;DHT22;30583;48.714;9.386;2022-11-24T08:22:22;7.70;84.00
44851;DHT22;30583;48.714;9.386;2022-11-24T08:24:48;7.60;84.70
44851;DHT22;30583;48.714;9.386;2022-11-24T08:27:15;7.70;84.60
44851;DHT22;30583;48.714;9.386;2022-11-24T08:29:42;7.80;84.20
44851;DHT22;30583;48.714;9.386;2022-11-24T08:32:08;7.80;84.60
44851;DHT22;30583;48.714;9.386;2022-11-24T08:34:34;7.70;84.10
44851;DHT22;30583;48.714;9.386;2022-11-24T08:37:01;7.70;85.10
44851;DHT22;30583;48.714;9.386;2022-11-24T08:39:27;7.70;84.60
44851;DHT22;30583;48.714;9.386;2022-11-24T08:41:53;7.60;85.00
44851;DHT22;30583;48.714;9.386;2022-11-24T08:44:18;7.60;85.40
44851;DHT22;30583;48.714;9.386;2022-11-24T08:46:44;7.70;85.20
44851;DHT22;30583;48.714;9.386;2022-11-24T08:49:10;7.50;85.60
44851;DHT22;30583;48.714;9.386;2022-11-24T08:51:38;7.70;85.50
44851;DHT22;30583;48.714;9.386;2022-11-24T08:54:04;7.80;85.30
44851;DHT22;30583;48.714;9.386;2022-11-24T08:56:31;7.90;85.10
44851;DHT22;30583;48.714;9.386;2022-11-24T08:58:57;7.80;85.20
44851;DHT22;30583;48.714;9.386;2022-11-24T09:01:23;7.90;85.20
44851;DHT22;30583;48.714;9.386;2022-11-24T09:03:49;8.10;84.80
44851;DHT22;30583;48.714;9.386;2022-11-24T09:06:17;8.00;84.70
44851;DHT22;30583;48.714;9.386;2022-11-24T09:08:42;7.90;85.10
44851;DHT22;30583;48.714;9.386;2022-11-24T09:11:10;8.10;84.90
44851;DHT22;30583;48.714;9.386;2022-11-24T09:13:37;8.10;84.70
44851;DHT22;30583;48.714;9.386;2022-11-24T09:16:08;8.00;84.90
44851;DHT22;30583;48.714;9.386;2022-11-24T09:18:34;8.00;85.10
44851;DHT22;30583;48.714;9.386;2022-11-24T09:21:11;8.20;84.80
44851;DHT22;30583;48.714;9.386;2022-11-24T09:23:37;8.10;85.00
44851;DHT22;30583;48.714;9.386;2022-11-24T09:26:27;8.30;84.70
44851;DHT22;30583;48.714;9.386;2022-11-24T09:28:54;8.40;83.90
44851;DHT22;30583;48.714;9.386;2022-11-24T09:31:23;8.10;84.50
44851;DHT22;30583;48.714;9.386;2022-11-24T09:33:49;8.30;84.60
44851;DHT22;30583;48.714;9.386;2022-11-24T09:36:15;8.50;84.60
44851;DHT22;30583;48.714;9.386;2022-11-24T09:38:41;8.60;84.50
44851;DHT22;30583;48.714;9.386;2022-11-24T09:46:52;8.50;83.80
44851;DHT22;30583;48.714;9.386;2022-11-24T09:49:38;8.40;84.50
44851;DHT22;30583;48.714;9.386;2022-11-24T09:52:13;8.40;83.90
44851;DHT22;30583;48.714;9.386;2022-11-24T09:54:51;8.40;83.40
44851;DHT22;30583;48.714;9.386;2022-11-24T09:57:20;8.40;83.50
44851;DHT22;30583;48.714;9.386;2022-11-24T09:59:48;8.40;83.00
44851;DHT22;30583;48.714;9.386;2022-11-24T10:02:14;8.50;83.40
44851;DHT22;30583;48.714;9.386;2022-11-24T10:04:44;8.60;83.10
44851;DHT22;30583;48.714;9.386;2022-11-24T10:10:10;8.70;82.90
44851;DHT22;30583;48.714;9.386;2022-11-24T10:15:43;8.50;83.50
44851;DHT22;30583;48.714;9.386;2022-11-24T10:18:52;8.60;82.90
44851;DHT22;30583;48.714;9.386;2022-11-24T10:26:50;8.60;82.10
44851;DHT22;30583;48.714;9.386;2022-11-24T10:29:25;8.70;82.00
44851;DHT22;30583;48.714;9.386;2022-11-24T10:31:55;8.70;81.80
44851;DHT22;30583;48.714;9.386;2022-11-24T10:37:05;8.90;81.40
44851;DHT22;30583;48.714;9.386;2022-11-24T10:42:30;8.80;80.90
44851;DHT22;30583;48.714;9.386;2022-11-24T10:45:12;8.90;81.40
44851;DHT22;30583;48.714;9.386;2022-11-24T10:47:39;9.20;81.40
44851;DHT22;30583;48.714;9.386;2022-11-24T10:58:33;10.10;78.40
44851;DHT22;30583;48.714;9.386;2022-11-24T11:01:17;10.10;77.40
44851;DHT22;30583;48.714;9.386;2022-11-24T11:03:58;9.90;76.60
44851;DHT22;30583;48.714;9.386;2022-11-24T11:06:28;9.70;77.80
44851;DHT22;30583;48.714;9.386;2022-11-24T11:11:33;9.90;78.10
44851;DHT22;30583;48.714;9.386;2022-11-24T11:14:00;9.80;77.60
44851;DHT22;30583;48.714;9.386;2022-11-24T11:16:36;10.30;76.10
44851;DHT22;30583;48.714;9.386;2022-11-24T11:19:04;11.20;75.10
44851;DHT22;30583;48.714;9.386;2022-11-24T11:21:36;10.90;74.20
44851;DHT22;30583;48.714;9.386;2022-11-24T11:24:04;11.00;77.70
44851;DHT22;30583;48.714;9.386;2022-11-24T11:26:37;10.50;76.90
44851;DHT22;30583;48.714;9.386;2022-11-24T11:31:36;10.60;77.40
44851;DHT22;30583;48.714;9.386;2022-11-24T11:34:13;10.30;77.20
44851;DHT22;30583;48.714;9.386;2022-11-24T11:36:42;10.80;76.90
44851;DHT22;30583;48.714;9.386;2022-11-24T11:39:32;11.10;75.00
44851;DHT22;30583;48.714;9.386;2022-11-24T11:47:27;11.30;74.20
44851;DHT22;30583;48.714;9.386;2022-11-24T11:49:54;11.40;72.90
44851;DHT22;30583;48.714;9.386;2022-11-24T11:55:40;11.80;73.10
44851;DHT22;30583;48.714;9.386;2022-11-24T11:58:22;11.40;72.20
44851;DHT22;30583;48.714;9.386;2022-11-24T12:11:52;11.70;72.20
44851;DHT22;30583;48.714;9.386;2022-11-24T12:17:56;11.40;71.80
44851;DHT22;30583;48.714;9.386;2022-11-24T12:20:47;11.40;72.70
44851;DHT22;30583;48.714;9.386;2022-11-24T12:29:02;11.30;73.10
44851;DHT22;30583;48.714;9.386;2022-11-24T12:31:46;11.70;72.00
44851;DHT22;30583;48.714;9.386;2022-11-24T12:34:23;11.70;71.50
44851;DHT22;30583;48.714;9.386;2022-11-24T12:40:04;11.70;71.00
44851;DHT22;30583;48.714;9.386;2022-11-24T12:45:41;11.40;72.70
44851;DHT22;30583;48.714;9.386;2022-11-24T12:51:26;11.00;73.30
44851;DHT22;30583;48.714;9.386;2022-11-24T12:53:54;11.10;73.30
44851;DHT22;30583;48.714;9.386;2022-11-24T12:56:35;11.10;73.60
44851;DHT22;30583;48.714;9.386;2022-11-24T13:02:05;10.60;74.40
44851;DHT22;30583;48.714;9.386;2022-11-24T13:05:12;10.70;74.90
44851;DHT22;30583;48.714;9.386;2022-11-24T13:07:48;10.70;74.00
44851;DHT22;30583;48.714;9.386;2022-11-24T13:13:05;10.80;72.50
44851;DHT22;30583;48.714;9.386;2022-11-24T13:15:36;10.90;72.60
44851;DHT22;30583;48.714;9.386;2022-11-24T13:21:35;10.80;71.30
44851;DHT22;30583;48.714;9.386;2022-11-24T13:26:44;10.60;70.40
44851;DHT22;30583;48.714;9.386;2022-11-24T13:39:49;12.90;59.30
44851;DHT22;30583;48.714;9.386;2022-11-24T13:42:15;13.60;57.60
44851;DHT22;30583;48.714;9.386;2022-11-24T13:44:48;13.20;58.80
44851;DHT22;30583;48.714;9.386;2022-11-24T13:50:07;12.10;60.80
44851;DHT22;30583;48.714;9.386;2022-11-24T13:57:44;11.70;63.30
44851;DHT22;30583;48.714;9.386;2022-11-24T14:02:48;11.70;63.70
44851;DHT22;30583;48.714;9.386;2022-11-24T14:05:18;11.50;64.40
44851;DHT22;30583;48.714;9.386;2022-11-24T14:07:47;11.60;65.00
44851;DHT22;30583;48.714;9.386;2022-11-24T14:10:21;11.40;65.00
44851;DHT22;30583;48.714;9.386;2022-11-24T14:13:14;11.50;64.90
44851;DHT22;30583;48.714;9.386;2022-11-24T14:15:33;11.70;65.00
44851;DHT22;30583;48.714;9.386;2022-11-24T14:18:01;11.70;64.30
44851;DHT22;30583;48.714;9.386;2022-11-24T14:20:37;11.70;64.70
44851;DHT22;30583;48.714;9.386;2022-11-24T14:23:02;11.60;65.70
44851;DHT22;30583;48.714;9.386;2022-11-24T14:25:33;12.60;63.70
44851;DHT22;30583;48.714;9.386;2022-11-24T14:27:59;13.50;61.00
44851;DHT22;30583;48.714;9.386;2022-11-24T14:30:25;13.70;58.90
44851;DHT22;30583;48.714;9.386;2022-11-24T14:32:56;13.40;58.80
44851;DHT22;30583;48.714;9.386;2022-11-24T14:35:33;13.70;58.00
44851;DHT22;30583;48.714;9.386;2022-11-24T14:38:00;13.80;56.10
44851;DHT22;30583;48.714;9.386;2022-11-24T14:43:14;13.50;56.20
44851;DHT22;30583;48.714;9.386;2022-11-24T14:46:08;12.60;57.80
44851;DHT22;30583;48.714;9.386;2022-11-24T14:48:47;13.00;57.70
44851;DHT22;30583;48.714;9.386;2022-11-24T14:51:25;13.10;58.10
44851;DHT22;30583;48.714;9.386;2022-11-24T14:53:54;12.50;58.90
44851;DHT22;30583;48.714;9.386;2022-11-24T14:58:49;11.70;60.30
44851;DHT22;30583;48.714;9.386;2022-11-24T15:03:43;11.70;61.40
44851;DHT22;30583;48.714;9.386;2022-11-24T15:06:17;11.50;62.10
44851;DHT22;30583;48.714;9.386;2022-11-24T15:08:46;11.40;63.10
44851;DHT22;30583;48.714;9.386;2022-11-24T15:11:12;11.40;63.00
44851;DHT22;30583;48.714;9.386;2022-11-24T15:13:39;11.50;62.40
44851;DHT22;30583;48.714;9.386;2022-11-24T15:16:15;11.40;62.20
44851;DHT22;30583;48.714;9.386;2022-11-24T15:18:47;11.40;61.80
44851;DHT22;30583;48.714;9.386;2022-11-24T15:21:13;11.30;62.00
44851;DHT22;30583;48.714;9.386;2022-11-24T15:23:40;11.30;62.30
44851;DHT22;30583;48.714;9.386;2022-11-24T15:28:33;11.10;62.50
44851;DHT22;30583;48.714;9.386;2022-11-24T15:31:01;11.10;63.00
44851;DHT22;30583;48.714;9.386;2022-11-24T15:33:27;11.20;63.40
44851;DHT22;30583;48.714;9.386;2022-11-24T15:35:53;11.00;63.60
44851;DHT22;30583;48.714;9.386;2022-11-24T15:38:18;11.10;64.00
44851;DHT22;30583;48.714;9.386;2022-11-24T15:40:46;11.00;64.70
44851;DHT22;30583;48.714;9.386;2022-11-24T15:43:34;11.10;64.30
44851;DHT22;30583;48.714;9.386;2022-11-24T15:46:01;10.90;65.50
44851;DHT22;30583;48.714;9.386;2022-11-24T15:48:28;10.90;65.70
44851;DHT22;30583;48.714;9.386;2022-11-24T15:50:55;10.90;66.20
44851;DHT22;30583;48.714;9.386;2022-11-24T15:55:56;10.70;67.60
44851;DHT22;30583;48.714;9.386;2022-11-24T15:58:23;10.70;67.50
44851;DHT22;30583;48.714;9.386;2022-11-24T16:00:48;10.70;67.70
44851;DHT22;30583;48.714;9.386;2022-11-24T16:03:15;10.60;68.20
44851;DHT22;30583;48.714;9.386;2022-11-24T16:05:41;10.60;68.50
44851;DHT22;30583;48.714;9.386;2022-11-24T16:08:13;10.70;68.20
44851;DHT22;30583;48.714;9.386;2022-11-24T16:10:40;10.60;67.80
44851;DHT22;30583;48.714;9.386;2022-11-24T16:13:06;10.50;68.20
44851;DHT22;30583;48.714;9.386;2022-11-24T16:15:31;10.30;68.60
44851;DHT22;30583;48.714;9.386;2022-11-24T16:17:57;10.30;68.50
44851;DHT22;30583;48.714;9.386;2022-11-24T16:20:23;10.30;68.20
44851;DHT22;30583;48.714;9.386;2022-11-24T16:22:48;10.20;68.40
44851;DHT22;30583;48.714;9.386;2022-11-24T16:25:14;10.10;68.80
44851;DHT22;30583;48.714;9.386;2022-11-24T16:27:40;10.00;68.70
44851;DHT22;30583;48.714;9.386;2022-11-24T16:30:06;10.20;73.50
44851;DHT22;30583;48.714;9.386;2022-11-24T16:32:32;15.30;67.90
44851;DHT22;30583;48.714;9.386;2022-11-24T16:34:58;14.70;55.00
44851;DHT22;30583;48.714;9.386;2022-11-24T16:37:23;11.20;62.40
44851;DHT22;30583;48.714;9.386;2022-11-24T16:39:49;10.10;66.20
44851;DHT22;30583;48.714;9.386;2022-11-24T16:42:15;9.70;68.60
44851;DHT22;30583;48.714;9.386;2022-11-24T16:44:41;9.60;69.70
44851;DHT22;30583;48.714;9.386;2022-11-24T16:47:07;9.40;70.70
44851;DHT22;30583;48.714;9.386;2022-11-24T16:49:33;9.30;71.50
44851;DHT22;30583;48.714;9.386;2022-11-24T16:51:59;9.10;71.90
44851;DHT22;30583;48.714;9.386;2022-11-24T16:54:24;9.00;72.10
44851;DHT22;30583;48.714;9.386;2022-11-24T16:56:50;9.10;71.70
44851;DHT22;30583;48.714;9.386;2022-11-24T16:59:16;8.70;73.90
44851;DHT22;30583;48.714;9.386;2022-11-24T17:01:41;9.20;77.10
44851;DHT22;30583;48.714;9.386;2022-11-24T17:04:13;9.10;75.40
44851;DHT22;30583;48.714;9.386;2022-11-24T17:06:39;9.30;75.30
44851;DHT22;30583;48.714;9.386;2022-11-24T17:09:04;9.50;74.90
44851;DHT22;30583;48.714;9.386;2022-11-24T17:11:30;9.60;73.60
44851;DHT22;30583;48.714;9.386;2022-11-24T17:13:56;9.30;73.60
44851;DHT22;30583;48.714;9.386;2022-11-24T17:16:23;8.90;73.00
44851;DHT22;30583;48.714;9.386;2022-11-24T17:18:50;8.90;75.70
44851;DHT22;30583;48.714;9.386;2022-11-24T17:21:21;9.40;76.30
44851;DHT22;30583;48.714;9.386;2022-11-24T17:23:51;9.40;74.60
44851;DHT22;30583;48.714;9.386;2022-11-24T17:26:17;9.40;75.20
44851;DHT22;30583;48.714;9.386;2022-11-24T17:28:43;9.30;72.90
44851;DHT22;30583;48.714;9.386;2022-11-24T17:31:21;9.20;72.50
44851;DHT22;30583;48.714;9.386;2022-11-24T17:33:47;8.80;73.50
44851;DHT22;30583;48.714;9.386;2022-11-24T17:36:13;8.80;72.80
44851;DHT22;30583;48.714;9.386;2022-11-24T17:38:39;8.50;74.70
44851;DHT22;30583;48.714;9.386;2022-11-24T17:41:05;8.50;74.40
44851;DHT22;30583;48.714;9.386;2022-11-24T17:43:31;8.30;75.10
44851;DHT22;30583;48.714;9.386;2022-11-24T17:45:58;8.10;74.90
44851;DHT22;30583;48.714;9.386;2022-11-24T17:48:25;7.70;74.50
44851;DHT22;30583;48.714;9.386;2022-11-24T17:51:01;7.80;74.80
44851;DHT22;30583;48.714;9.386;2022-11-24T17:53:27;7.70;74.80
44851;DHT22;30583;48.714;9.386;2022-11-24T17:55:53;7.90;75.30